sensor_id;sensor_type;location;lat;lon;timestamp;P1;durP1;ratioP1;P2;durP2;ratioP2
50417;SDS011;36346;48.280;14.292;2023-04-03T15:57:41;4.94;;;4.94;;
50417;SDS011;36346;48.280;14.292;2023-04-03T16:00:11;5.29;;;5.29;;
50417;SDS011;36346;48.280;14.292;2023-04-03T16:02:40;5.48;;;5.48;;
50417;SDS011;36346;48.280;14.292;2023-04-03T16:05:10;5.62;;;5.62;;
50417;SDS011;36346;48.280;14.292;2023-04-03T16:07:39;5.65;;;5.65;;
50417;SDS011;36346;48.280;14.292;2023-04-03T16:10:09;5.45;;;5.45;;
50417;SDS011;36346;48.280;14.292;2023-04-03T16:12:39;5.50;;;5.50;;
50417;SDS011;36346;48.280;14.292;2023-04-03T16:15:08;5.38;;;5.38;;
50417;SDS011;36346;48.280;14.292;2023-04-03T16:17:37;5.31;;;5.31;;
50417;SDS011;36346;48.280;14.292;2023-04-03T16:20:08;5.38;;;5.38;;
50417;SDS011;36346;48.280;14.292;2023-04-03T16:22:38;5.77;;;5.77;;
50417;SDS011;36346;48.280;14.292;2023-04-03T16:25:08;6.11;;;6.11;;
50417;SDS011;36346;48.280;14.292;2023-04-03T16:27:39;5.66;;;5.66;;
50417;SDS011;36346;48.280;14.292;2023-04-03T16:30:07;5.56;;;5.56;;
50417;SDS011;36346;48.280;14.292;2023-04-03T16:32:36;5.71;;;5.71;;
50417;SDS011;36346;48.280;14.292;2023-04-03T16:35:05;5.93;;;5.93;;
50417;SDS011;36346;48.280;14.292;2023-04-03T16:37:34;6.38;;;6.38;;
50417;SDS011;36346;48.280;14.292;2023-04-03T16:40:02;6.59;;;6.59;;
50417;SDS011;36346;48.280;14.292;2023-04-03T16:42:31;6.52;;;6.52;;
50417;SDS011;36346;48.280;14.292;2023-04-03T16:44:59;6.44;;;6.44;;
50417;SDS011;36346;48.280;14.292;2023-04-03T16:47:30;6.69;;;6.69;;
50417;SDS011;36346;48.280;14.292;2023-04-03T16:49:58;6.84;;;6.84;;
50417;SDS011;36346;48.280;14.292;2023-04-03T16:52:26;6.72;;;6.72;;
50417;SDS011;36346;48.280;14.292;2023-04-03T16:54:54;6.64;;;6.64;;
50417;SDS011;36346;48.280;14.292;2023-04-03T16:57:23;6.39;;;6.38;;
50417;SDS011;36346;48.280;14.292;2023-04-03T16:59:53;6.29;;;6.29;;
50417;SDS011;36346;48.280;14.292;2023-04-03T17:02:22;6.06;;;6.06;;
50417;SDS011;36346;48.280;14.292;2023-04-03T17:04:55;6.62;;;6.62;;
50417;SDS011;36346;48.280;14.292;2023-04-03T17:07:23;5.94;;;5.94;;
50417;SDS011;36346;48.280;14.292;2023-04-03T17:09:52;5.83;;;5.83;;
50417;SDS011;36346;48.280;14.292;2023-04-03T17:12:21;5.89;;;5.89;;
50417;SDS011;36346;48.280;14.292;2023-04-03T17:14:49;6.48;;;6.48;;
50417;SDS011;36346;48.280;14.292;2023-04-03T17:17:18;6.65;;;6.65;;
50417;SDS011;36346;48.280;14.292;2023-04-03T17:19:50;6.43;;;6.43;;
50417;SDS011;36346;48.280;14.292;2023-04-03T17:22:18;6.30;;;6.30;;
50417;SDS011;36346;48.280;14.292;2023-04-03T17:24:46;6.10;;;6.10;;
50417;SDS011;36346;48.280;14.292;2023-04-03T17:27:13;6.70;;;6.70;;
50417;SDS011;36346;48.280;14.292;2023-04-03T17:38:46;5.46;;;5.46;;
50417;SDS011;36346;48.280;14.292;2023-04-03T17:41:15;6.04;;;6.04;;
50417;SDS011;36346;48.280;14.292;2023-04-03T17:43:43;5.71;;;5.71;;
50417;SDS011;36346;48.280;14.292;2023-04-03T17:46:11;5.43;;;5.43;;
50417;SDS011;36346;48.280;14.292;2023-04-03T17:48:39;5.38;;;5.38;;
50417;SDS011;36346;48.280;14.292;2023-04-03T17:51:09;5.33;;;5.33;;
50417;SDS011;36346;48.280;14.292;2023-04-03T17:53:39;5.24;;;5.24;;
50417;SDS011;36346;48.280;14.292;2023-04-03T17:56:15;5.49;;;5.49;;
50417;SDS011;36346;48.280;14.292;2023-04-03T17:58:45;5.48;;;5.48;;
50417;SDS011;36346;48.280;14.292;2023-04-03T18:01:17;5.37;;;5.37;;
50417;SDS011;36346;48.280;14.292;2023-04-03T18:03:56;5.50;;;5.50;;
50417;SDS011;36346;48.280;14.292;2023-04-03T18:06:30;6.09;;;6.09;;
50417;SDS011;36346;48.280;14.292;2023-04-03T18:09:03;5.91;;;5.91;;
50417;SDS011;36346;48.280;14.292;2023-04-03T18:11:34;5.66;;;5.65;;
50417;SDS011;36346;48.280;14.292;2023-04-03T18:14:03;6.02;;;6.02;;
50417;SDS011;36346;48.280;14.292;2023-04-03T18:16:34;5.97;;;5.97;;
50417;SDS011;36346;48.280;14.292;2023-04-03T18:19:02;5.73;;;5.72;;
50417;SDS011;36346;48.280;14.292;2023-04-03T18:21:37;5.71;;;5.70;;
50417;SDS011;36346;48.280;14.292;2023-04-03T18:24:10;5.28;;;5.28;;
50417;SDS011;36346;48.280;14.292;2023-04-03T18:26:41;5.10;;;5.10;;
50417;SDS011;36346;48.280;14.292;2023-04-03T18:29:14;5.47;;;5.47;;
50417;SDS011;36346;48.280;14.292;2023-04-03T18:31:44;5.42;;;5.42;;
50417;SDS011;36346;48.280;14.292;2023-04-03T18:34:15;5.47;;;5.47;;
50417;SDS011;36346;48.280;14.292;2023-04-03T18:36:43;5.92;;;5.92;;
50417;SDS011;36346;48.280;14.292;2023-04-03T18:39:11;6.06;;;6.05;;
50417;SDS011;36346;48.280;14.292;2023-04-03T18:41:39;5.49;;;5.48;;
50417;SDS011;36346;48.280;14.292;2023-04-03T18:44:09;5.24;;;5.24;;
50417;SDS011;36346;48.280;14.292;2023-04-03T18:46:41;5.15;;;5.15;;
50417;SDS011;36346;48.280;14.292;2023-04-03T18:49:09;5.62;;;5.62;;
50417;SDS011;36346;48.280;14.292;2023-04-03T18:52:29;6.05;;;6.05;;
50417;SDS011;36346;48.280;14.292;2023-04-03T18:54:58;5.78;;;5.78;;
50417;SDS011;36346;48.280;14.292;2023-04-03T18:57:26;5.69;;;5.69;;
50417;SDS011;36346;48.280;14.292;2023-04-03T18:59:54;6.22;;;6.22;;
50417;SDS011;36346;48.280;14.292;2023-04-03T19:02:22;5.37;;;5.37;;
50417;SDS011;36346;48.280;14.292;2023-04-03T19:04:52;5.40;;;5.40;;
50417;SDS011;36346;48.280;14.292;2023-04-03T19:07:20;5.59;;;5.59;;
50417;SDS011;36346;48.280;14.292;2023-04-03T19:09:48;5.47;;;5.47;;
50417;SDS011;36346;48.280;14.292;2023-04-03T19:12:17;5.28;;;5.28;;
50417;SDS011;36346;48.280;14.292;2023-04-03T19:14:45;5.58;;;5.58;;
50417;SDS011;36346;48.280;14.292;2023-04-03T19:17:12;5.32;;;5.32;;
50417;SDS011;36346;48.280;14.292;2023-04-03T19:19:40;5.72;;;5.72;;
50417;SDS011;36346;48.280;14.292;2023-04-03T19:22:08;5.41;;;5.41;;
50417;SDS011;36346;48.280;14.292;2023-04-03T19:24:37;5.50;;;5.50;;
50417;SDS011;36346;48.280;14.292;2023-04-03T19:27:05;5.27;;;5.27;;
50417;SDS011;36346;48.280;14.292;2023-04-03T19:29:33;5.18;;;5.18;;
50417;SDS011;36346;48.280;14.292;2023-04-03T19:32:00;5.40;;;5.40;;
50417;SDS011;36346;48.280;14.292;2023-04-03T19:34:28;5.62;;;5.62;;
50417;SDS011;36346;48.280;14.292;2023-04-03T19:36:56;5.53;;;5.51;;
50417;SDS011;36346;48.280;14.292;2023-04-03T19:39:25;5.42;;;5.42;;
50417;SDS011;36346;48.280;14.292;2023-04-03T19:41:52;5.55;;;5.55;;
50417;SDS011;36346;48.280;14.292;2023-04-03T19:44:20;5.32;;;5.31;;
50417;SDS011;36346;48.280;14.292;2023-04-03T19:46:51;5.33;;;5.33;;
50417;SDS011;36346;48.280;14.292;2023-04-03T19:49:19;5.33;;;5.33;;
50417;SDS011;36346;48.280;14.292;2023-04-03T19:51:47;5.52;;;5.52;;
50417;SDS011;36346;48.280;14.292;2023-04-03T19:54:15;5.18;;;5.18;;
50417;SDS011;36346;48.280;14.292;2023-04-03T19:56:43;5.69;;;5.69;;
50417;SDS011;36346;48.280;14.292;2023-04-03T19:59:12;5.32;;;5.32;;
50417;SDS011;36346;48.280;14.292;2023-04-03T20:01:41;4.99;;;4.99;;
50417;SDS011;36346;48.280;14.292;2023-04-03T20:04:09;4.87;;;4.87;;
50417;SDS011;36346;48.280;14.292;2023-04-03T20:06:37;5.10;;;5.10;;
50417;SDS011;36346;48.280;14.292;2023-04-03T20:09:05;5.12;;;5.12;;
50417;SDS011;36346;48.280;14.292;2023-04-03T20:11:36;5.37;;;5.37;;
50417;SDS011;36346;48.280;14.292;2023-04-03T20:14:06;5.34;;;5.34;;
50417;SDS011;36346;48.280;14.292;2023-04-03T20:16:34;5.63;;;5.63;;
50417;SDS011;36346;48.280;14.292;2023-04-03T20:19:02;5.30;;;5.30;;
50417;SDS011;36346;48.280;14.292;2023-04-03T20:21:33;5.03;;;5.03;;
50417;SDS011;36346;48.280;14.292;2023-04-03T20:24:01;5.27;;;5.27;;
50417;SDS011;36346;48.280;14.292;2023-04-03T20:26:31;5.26;;;5.26;;
50417;SDS011;36346;48.280;14.292;2023-04-03T20:29:00;5.12;;;5.12;;
50417;SDS011;36346;48.280;14.292;2023-04-03T20:31:29;5.33;;;5.33;;
50417;SDS011;36346;48.280;14.292;2023-04-03T20:33:58;4.82;;;4.80;;
50417;SDS011;36346;48.280;14.292;2023-04-03T20:36:26;5.30;;;5.27;;
50417;SDS011;36346;48.280;14.292;2023-04-03T20:38:55;5.11;;;5.09;;
50417;SDS011;36346;48.280;14.292;2023-04-03T20:41:24;5.14;;;5.14;;
50417;SDS011;36346;48.280;14.292;2023-04-03T20:43:52;5.72;;;5.72;;
50417;SDS011;36346;48.280;14.292;2023-04-03T20:46:20;6.17;;;6.17;;
50417;SDS011;36346;48.280;14.292;2023-04-03T20:48:51;6.67;;;6.66;;
50417;SDS011;36346;48.280;14.292;2023-04-03T20:51:20;5.63;;;5.61;;
50417;SDS011;36346;48.280;14.292;2023-04-03T20:53:48;5.58;;;5.57;;
50417;SDS011;36346;48.280;14.292;2023-04-03T20:56:16;5.06;;;5.06;;
50417;SDS011;36346;48.280;14.292;2023-04-03T20:58:44;5.11;;;5.11;;
50417;SDS011;36346;48.280;14.292;2023-04-03T21:03:50;5.15;;;5.14;;
50417;SDS011;36346;48.280;14.292;2023-04-03T21:21:18;4.99;;;4.99;;
50417;SDS011;36346;48.280;14.292;2023-04-03T21:23:50;4.99;;;4.98;;
50417;SDS011;36346;48.280;14.292;2023-04-03T21:26:20;4.82;;;4.82;;
50417;SDS011;36346;48.280;14.292;2023-04-03T21:28:49;4.62;;;4.62;;
50417;SDS011;36346;48.280;14.292;2023-04-03T21:31:19;4.87;;;4.87;;
50417;SDS011;36346;48.280;14.292;2023-04-03T21:33:48;4.61;;;4.61;;
50417;SDS011;36346;48.280;14.292;2023-04-03T21:36:16;4.97;;;4.97;;
50417;SDS011;36346;48.280;14.292;2023-04-03T21:38:44;5.07;;;5.06;;
50417;SDS011;36346;48.280;14.292;2023-04-03T21:41:12;4.65;;;4.64;;
50417;SDS011;36346;48.280;14.292;2023-04-03T21:43:40;4.65;;;4.65;;
50417;SDS011;36346;48.280;14.292;2023-04-03T21:46:08;4.61;;;4.61;;
50417;SDS011;36346;48.280;14.292;2023-04-03T21:48:36;4.82;;;4.82;;
50417;SDS011;36346;48.280;14.292;2023-04-03T21:51:04;4.71;;;4.71;;
50417;SDS011;36346;48.280;14.292;2023-04-03T21:53:33;5.00;;;5.00;;
50417;SDS011;36346;48.280;14.292;2023-04-03T21:56:02;4.85;;;4.85;;
50417;SDS011;36346;48.280;14.292;2023-04-03T21:58:30;4.89;;;4.89;;
50417;SDS011;36346;48.280;14.292;2023-04-03T22:03:37;4.87;;;4.87;;
50417;SDS011;36346;48.280;14.292;2023-04-03T22:06:06;4.77;;;4.77;;
50417;SDS011;36346;48.280;14.292;2023-04-03T22:08:34;4.65;;;4.63;;
50417;SDS011;36346;48.280;14.292;2023-04-03T22:11:03;4.65;;;4.65;;
50417;SDS011;36346;48.280;14.292;2023-04-03T22:13:33;4.38;;;4.38;;
50417;SDS011;36346;48.280;14.292;2023-04-03T22:16:02;4.60;;;4.60;;
50417;SDS011;36346;48.280;14.292;2023-04-03T22:18:30;4.73;;;4.73;;
50417;SDS011;36346;48.280;14.292;2023-04-03T22:20:59;4.85;;;4.85;;
50417;SDS011;36346;48.280;14.292;2023-04-03T22:23:27;4.29;;;4.29;;
50417;SDS011;36346;48.280;14.292;2023-04-03T22:25:55;4.46;;;4.46;;
50417;SDS011;36346;48.280;14.292;2023-04-03T22:28:28;4.37;;;4.37;;
50417;SDS011;36346;48.280;14.292;2023-04-03T22:30:59;4.22;;;4.22;;
50417;SDS011;36346;48.280;14.292;2023-04-03T22:33:30;4.45;;;4.45;;
50417;SDS011;36346;48.280;14.292;2023-04-03T22:35:58;4.64;;;4.64;;
50417;SDS011;36346;48.280;14.292;2023-04-03T22:38:26;4.63;;;4.63;;
50417;SDS011;36346;48.280;14.292;2023-04-03T22:40:55;4.67;;;4.66;;
50417;SDS011;36346;48.280;14.292;2023-04-03T22:43:27;4.40;;;4.38;;
50417;SDS011;36346;48.280;14.292;2023-04-03T22:45:58;4.54;;;4.51;;
50417;SDS011;36346;48.280;14.292;2023-04-03T22:48:27;4.21;;;4.19;;
50417;SDS011;36346;48.280;14.292;2023-04-03T22:50:55;4.33;;;4.33;;
50417;SDS011;36346;48.280;14.292;2023-04-03T22:53:23;4.10;;;4.08;;
50417;SDS011;36346;48.280;14.292;2023-04-03T22:55:58;4.57;;;4.55;;
50417;SDS011;36346;48.280;14.292;2023-04-03T22:58:27;4.65;;;4.62;;
50417;SDS011;36346;48.280;14.292;2023-04-03T23:01:06;4.52;;;4.49;;
50417;SDS011;36346;48.280;14.292;2023-04-03T23:03:36;4.75;;;4.71;;
50417;SDS011;36346;48.280;14.292;2023-04-03T23:06:05;4.62;;;4.61;;
50417;SDS011;36346;48.280;14.292;2023-04-03T23:08:34;4.57;;;4.56;;
50417;SDS011;36346;48.280;14.292;2023-04-03T23:11:07;4.45;;;4.45;;
50417;SDS011;36346;48.280;14.292;2023-04-03T23:13:38;4.41;;;4.41;;
50417;SDS011;36346;48.280;14.292;2023-04-03T23:16:06;4.64;;;4.64;;
50417;SDS011;36346;48.280;14.292;2023-04-03T23:18:34;4.58;;;4.58;;
50417;SDS011;36346;48.280;14.292;2023-04-03T23:21:06;4.78;;;4.77;;
50417;SDS011;36346;48.280;14.292;2023-04-03T23:23:36;4.69;;;4.69;;
50417;SDS011;36346;48.280;14.292;2023-04-03T23:26:04;5.38;;;5.37;;
50417;SDS011;36346;48.280;14.292;2023-04-03T23:28:32;4.93;;;4.93;;
50417;SDS011;36346;48.280;14.292;2023-04-03T23:31:01;5.05;;;5.04;;
50417;SDS011;36346;48.280;14.292;2023-04-03T23:33:33;4.82;;;4.81;;
50417;SDS011;36346;48.280;14.292;2023-04-03T23:36:04;5.12;;;5.12;;
50417;SDS011;36346;48.280;14.292;2023-04-03T23:38:34;4.59;;;4.58;;
50417;SDS011;36346;48.280;14.292;2023-04-03T23:41:03;4.53;;;4.53;;
50417;SDS011;36346;48.280;14.292;2023-04-03T23:43:31;4.83;;;4.82;;
50417;SDS011;36346;48.280;14.292;2023-04-03T23:45:59;4.70;;;4.70;;
50417;SDS011;36346;48.280;14.292;2023-04-03T23:48:27;4.79;;;4.78;;
50417;SDS011;36346;48.280;14.292;2023-04-03T23:50:55;4.75;;;4.73;;
50417;SDS011;36346;48.280;14.292;2023-04-03T23:53:23;4.76;;;4.75;;
50417;SDS011;36346;48.280;14.292;2023-04-03T23:55:51;4.85;;;4.84;;
50417;SDS011;36346;48.280;14.292;2023-04-03T23:58:19;4.76;;;4.75;;
